Terminal Aerodrome Forecast
Issued by NWS

Home | Current Version | Previous Version | Text Only | Print | Product List | Glossary On
Versions: 1 2 3 4 5 6 7 8 9 10 11 12 13 14 15
000
FTUS45 KRIW 260700 AAA
TAFBPI
TAF AMD
KBPI 260744Z 2608/2706 17008KT P6SM BKN015
     FM261700 VRB06KT P6SM VCSH SCT028 BKN040
     FM270200 VRB05KT P6SM BKN050=

USA.gov is the U.S. government's official web portal to all federal, state and local government web resources and services.